createdAt,value
2019-02-24T00:05:38.924Z,6.94
2019-02-24T00:11:45.035Z,6.88
2019-02-24T00:17:50.899Z,6.86
2019-02-24T00:23:56.892Z,6.85
2019-02-24T00:30:02.860Z,6.82
2019-02-24T00:36:08.935Z,6.76
2019-02-24T00:42:14.655Z,6.68
2019-02-24T00:48:20.832Z,6.58
2019-02-24T00:54:26.905Z,6.51
2019-02-24T01:00:32.810Z,6.43
2019-02-24T01:06:38.820Z,6.42
2019-02-24T01:12:44.789Z,6.43
2019-02-24T01:18:50.637Z,6.46
2019-02-24T01:24:56.659Z,6.47
2019-02-24T01:31:21.462Z,6.51
2019-02-24T01:37:27.659Z,6.52
2019-02-24T01:43:33.542Z,6.53
2019-02-24T01:49:39.251Z,6.52
2019-02-24T01:55:45.054Z,6.49
2019-02-24T02:01:50.913Z,6.41
2019-02-24T02:07:57.435Z,6.39
2019-02-24T02:14:03.311Z,6.36
2019-02-24T02:20:09.513Z,6.33
2019-02-24T02:26:15.766Z,6.26
2019-02-24T02:32:21.759Z,6.17
2019-02-24T02:38:27.821Z,6.08
2019-02-24T02:44:33.659Z,6.05
2019-02-24T02:50:39.654Z,6.01
2019-02-24T02:56:45.362Z,5.99
2019-02-24T03:02:51.332Z,5.95
2019-02-24T03:08:57.313Z,5.96
2019-02-24T03:15:03.090Z,5.91
2019-02-24T03:21:09.156Z,5.87
2019-02-24T03:27:14.896Z,5.84
2019-02-24T03:33:21.179Z,5.78
2019-02-24T03:39:26.971Z,5.72
2019-02-24T03:45:32.760Z,5.64
2019-02-24T03:51:38.587Z,5.57
2019-02-24T03:57:44.791Z,5.47
2019-02-24T04:03:50.531Z,5.46
2019-02-24T04:09:56.441Z,5.42
2019-02-24T04:16:02.214Z,5.36
2019-02-24T04:22:08.383Z,5.26
2019-02-24T04:28:14.169Z,5.17
2019-02-24T04:34:20.128Z,5.12
2019-02-24T04:40:25.957Z,5.11
2019-02-24T04:46:32.201Z,5.02
2019-02-24T04:52:38.315Z,5.01
2019-02-24T04:58:44.150Z,4.96
2019-02-24T05:04:50.090Z,4.88
2019-02-24T05:10:56.176Z,4.82
2019-02-24T05:17:02.169Z,4.77
2019-02-24T05:23:08.116Z,4.75
2019-02-24T05:29:14.320Z,4.72
2019-02-24T05:35:20.577Z,4.65
2019-02-24T05:41:26.395Z,4.54
2019-02-24T05:47:32.568Z,4.50
2019-02-24T05:53:38.577Z,4.47
2019-02-24T05:59:54.669Z,4.41
2019-02-24T06:05:52.843Z,4.37
2019-02-24T06:11:58.613Z,4.41
2019-02-24T06:18:04.492Z,4.42
2019-02-24T06:24:10.226Z,4.46
2019-02-24T06:30:15.997Z,4.52
2019-02-24T06:36:21.774Z,4.59
2019-02-24T06:42:27.724Z,4.64
2019-02-24T06:48:33.535Z,4.65
2019-02-24T06:54:39.343Z,4.53
2019-02-24T07:00:45.441Z,4.61
2019-02-24T07:06:51.428Z,4.74
2019-02-24T07:12:57.174Z,4.81
2019-02-24T07:19:03.204Z,4.94
2019-02-24T07:25:09.160Z,5.09
2019-02-24T07:31:16.797Z,5.21
2019-02-24T07:37:22.832Z,5.34
2019-02-24T07:43:28.825Z,5.48
2019-02-24T07:49:34.798Z,5.66
2019-02-24T07:55:40.990Z,5.90
2019-02-24T08:01:47.199Z,6.15
2019-02-24T08:07:53.256Z,6.41
2019-02-24T08:13:59.261Z,6.66
2019-02-24T08:20:06.007Z,6.78
2019-02-24T08:26:11.976Z,6.95
2019-02-24T08:32:17.991Z,7.16
2019-02-24T08:38:24.593Z,7.30
2019-02-24T08:44:31.044Z,7.43
2019-02-24T08:50:37.082Z,7.60
2019-02-24T08:56:43.074Z,7.72
2019-02-24T09:02:49.010Z,7.87
2019-02-24T09:08:55.031Z,8.06
2019-02-24T09:15:00.791Z,8.23
2019-02-24T09:21:06.715Z,8.39
2019-02-24T09:27:12.993Z,8.63
2019-02-24T09:33:19.096Z,8.81
2019-02-24T09:39:24.849Z,9.01
2019-02-24T09:45:30.671Z,9.20
2019-02-24T09:51:36.601Z,9.40
2019-02-24T09:57:42.871Z,9.57
2019-02-24T10:03:48.676Z,9.69
2019-02-24T10:09:54.475Z,9.90
2019-02-24T10:16:00.744Z,10.07
2019-02-24T10:22:06.587Z,10.20
2019-02-24T10:28:12.649Z,10.36
2019-02-24T10:34:18.428Z,10.52
2019-02-24T10:40:24.473Z,10.66
2019-02-24T10:46:30.371Z,10.78
2019-02-24T10:52:36.184Z,10.97
2019-02-24T10:58:41.984Z,11.09
2019-02-24T11:04:48.984Z,11.24
2019-02-24T11:10:54.892Z,11.36
2019-02-24T11:17:00.747Z,11.50
2019-02-24T11:23:06.630Z,11.72
2019-02-24T11:29:12.776Z,11.94
2019-02-24T11:35:18.596Z,12.07
2019-02-24T11:41:24.675Z,12.28
2019-02-24T11:47:30.558Z,12.39
2019-02-24T11:53:36.459Z,12.52
2019-02-24T11:59:42.476Z,12.66
2019-02-24T12:05:48.366Z,12.79
2019-02-24T12:11:54.437Z,12.98
2019-02-24T12:18:00.399Z,13.14
2019-02-24T12:24:06.145Z,13.29
2019-02-24T12:30:12.313Z,13.43
2019-02-24T12:36:18.110Z,13.51
2019-02-24T12:42:23.965Z,13.64
2019-02-24T12:48:30.303Z,13.79
2019-02-24T12:54:36.051Z,13.95
2019-02-24T13:00:42.213Z,14.03
2019-02-24T13:06:48.173Z,14.16
2019-02-24T13:12:53.999Z,14.29
2019-02-24T13:18:59.762Z,14.38
2019-02-24T13:25:05.612Z,14.49
2019-02-24T13:31:11.371Z,14.61
2019-02-24T13:37:17.094Z,14.68
2019-02-24T13:43:22.846Z,14.79
2019-02-24T13:49:28.637Z,14.91
2019-02-24T13:55:34.477Z,15.04
2019-02-24T14:01:40.271Z,15.12
2019-02-24T14:07:50.388Z,15.23
2019-02-24T14:13:56.330Z,15.33
2019-02-24T14:20:02.149Z,15.43
2019-02-24T14:26:08.196Z,15.51
2019-02-24T14:32:14.463Z,15.57
2019-02-24T14:38:20.257Z,15.63
2019-02-24T14:44:26.132Z,15.68
2019-02-24T14:50:31.867Z,15.71
2019-02-24T14:56:37.626Z,15.67
2019-02-24T15:02:43.590Z,15.69
2019-02-24T15:08:49.561Z,15.72
2019-02-24T15:14:55.578Z,15.71
2019-02-24T15:21:01.630Z,15.72
2019-02-24T15:27:07.461Z,15.81
2019-02-24T15:33:13.279Z,15.90
2019-02-24T15:39:19.117Z,16.03
2019-02-24T15:45:25.298Z,16.20
2019-02-24T15:51:31.128Z,16.40
2019-02-24T15:57:36.958Z,16.69
2019-02-24T16:03:42.858Z,16.94
2019-02-24T16:09:48.589Z,16.68
2019-02-24T16:15:54.386Z,16.24
2019-02-24T16:22:02.495Z,15.89
2019-02-24T16:28:08.497Z,15.62
2019-02-24T16:34:14.450Z,15.44
2019-02-24T16:40:21.879Z,15.17
2019-02-24T16:46:27.636Z,14.85
2019-02-24T16:52:33.419Z,14.55
2019-02-24T16:58:39.264Z,14.46
2019-02-24T17:04:45.235Z,14.33
2019-02-24T17:10:51.012Z,14.06
2019-02-24T17:17:01.630Z,13.79
2019-02-24T17:23:04.711Z,13.55
2019-02-24T17:29:10.738Z,13.33
2019-02-24T17:35:16.510Z,13.15
2019-02-24T17:41:22.427Z,13.01
2019-02-24T17:47:28.239Z,12.86
2019-02-24T17:53:34.448Z,12.75
2019-02-24T17:59:40.837Z,12.60
2019-02-24T18:05:46.789Z,12.39
2019-02-24T18:11:53.335Z,12.23
2019-02-24T18:17:59.609Z,12.11
2019-02-24T18:24:05.603Z,11.96
2019-02-24T18:30:15.842Z,11.80
2019-02-24T18:36:22.035Z,11.62
2019-02-24T18:42:27.884Z,11.50
2019-02-24T18:48:34.125Z,11.39
2019-02-24T18:54:41.835Z,11.28
2019-02-24T19:00:50.364Z,11.16
2019-02-24T19:06:56.849Z,10.88
2019-02-24T19:13:02.794Z,10.77
2019-02-24T19:19:09.824Z,10.63
2019-02-24T19:25:15.721Z,10.50
2019-02-24T19:31:21.508Z,10.39
2019-02-24T19:37:27.363Z,10.39
2019-02-24T19:43:33.387Z,10.36
2019-02-24T19:49:39.222Z,10.33
2019-02-24T19:55:45.196Z,10.27
2019-02-24T20:01:51.060Z,10.15
2019-02-24T20:07:56.874Z,10.09
2019-02-24T20:14:03.082Z,9.95
2019-02-24T20:20:10.170Z,9.71
2019-02-24T20:26:16.546Z,9.48
2019-02-24T20:32:22.355Z,9.27
2019-02-24T20:38:28.253Z,9.20
2019-02-24T20:44:34.036Z,9.15
2019-02-24T20:50:39.807Z,8.77
2019-02-24T20:56:45.678Z,8.48
2019-02-24T21:02:51.900Z,8.33
2019-02-24T21:08:57.890Z,8.19
2019-02-24T21:15:04.322Z,8.06
2019-02-24T21:21:10.165Z,7.98
2019-02-24T21:27:15.972Z,7.89
2019-02-24T21:33:22.302Z,7.80
2019-02-24T21:39:28.427Z,7.81
2019-02-24T21:45:34.164Z,7.85
2019-02-24T21:51:40.903Z,7.87
2019-02-24T21:57:46.916Z,7.80
2019-02-24T22:03:53.129Z,7.53
2019-02-24T22:09:59.558Z,7.26
2019-02-24T22:16:06.172Z,7.13
2019-02-24T22:22:11.945Z,7.04
2019-02-24T22:28:17.907Z,7.08
2019-02-24T22:34:23.906Z,7.15
2019-02-24T22:40:29.653Z,7.16
2019-02-24T22:46:35.499Z,7.21
2019-02-24T22:52:41.218Z,7.23
2019-02-24T22:58:47.333Z,7.26
2019-02-24T23:04:53.193Z,7.18
2019-02-24T23:10:59.226Z,7.11
2019-02-24T23:17:05.581Z,6.95
2019-02-24T23:23:11.567Z,6.60
2019-02-24T23:29:17.469Z,6.33
2019-02-24T23:35:23.327Z,6.15
2019-02-24T23:41:29.553Z,5.90
2019-02-24T23:47:36.006Z,5.98
2019-02-24T23:53:42.084Z,5.78
2019-02-24T23:59:48.202Z,5.66
